Time;durP1;ratioP1;P1;durP2;ratioP2;P2;SDS_P1;SDS_P2;PMS_P1;PMS_P2;Temp;Humidity;BMP_temperature;BMP_pressure;BME280_temperature;BME280_humidity;BME280_pressure;Samples;Min_cycle;Max_cycle;Signal;HPM_P1;HPM_P2
2023/06/29 00:01:42;;;;;;;4.07;1.00;;;16.40;99.90;;;;;;5076147;28;20028;-92
2023/06/29 00:04:08;;;;;;;5.97;0.90;;;16.40;99.90;;;;;;5056110;28;20548;-91
2023/06/29 00:06:36;;;;;;;6.25;1.17;;;16.40;99.90;;;;;;5055214;28;20073;-91
2023/06/29 00:09:04;;;;;;;3.38;0.80;;;16.30;99.90;;;;;;5054318;28;20439;-92
2023/06/29 00:11:30;;;;;;;1.00;0.43;;;16.30;99.90;;;;;;5054385;28;20504;-91
2023/06/29 00:13:55;;;;;;;2.08;0.80;;;16.30;99.90;;;;;;5054735;28;20642;-91
2023/06/29 00:16:22;;;;;;;4.32;0.75;;;16.30;99.90;;;;;;5056212;28;20466;-91
2023/06/29 00:18:54;;;;;;;2.00;0.73;;;16.20;99.90;;;;;;5055395;28;20055;-91
2023/06/29 00:21:20;;;;;;;9.40;1.98;;;16.20;99.90;;;;;;5054234;28;20107;-91
2023/06/29 00:23:45;;;;;;;2.75;0.68;;;16.20;99.90;;;;;;5056318;28;20056;-91
2023/06/29 00:26:13;;;;;;;2.90;0.80;;;16.30;99.90;;;;;;5054921;28;20032;-91
2023/06/29 00:28:39;;;;;;;5.22;0.60;;;16.30;99.90;;;;;;5055510;28;20021;-91
2023/06/29 00:31:04;;;;;;;3.10;1.00;;;16.30;99.90;;;;;;5054505;28;20123;-90
2023/06/29 00:33:30;;;;;;;2.65;0.70;;;16.30;99.90;;;;;;5071564;28;20044;-90
2023/06/29 00:35:56;;;;;;;3.03;0.75;;;16.40;99.90;;;;;;5077096;28;20027;-89
2023/06/29 00:38:21;;;;;;;6.65;1.27;;;16.40;99.90;;;;;;5065106;28;20060;-90
2023/06/29 00:40:48;;;;;;;4.22;0.82;;;16.50;99.90;;;;;;5056215;28;20025;-91
2023/06/29 00:43:14;;;;;;;4.03;0.80;;;16.50;99.90;;;;;;5054315;28;20029;-90
2023/06/29 00:45:39;;;;;;;1.45;0.60;;;16.70;99.50;;;;;;5053498;28;20405;-89
2023/06/29 00:48:06;;;;;;;4.90;0.88;;;16.70;98.80;;;;;;5053191;28;20028;-91
2023/06/29 00:50:32;;;;;;;3.10;0.75;;;16.80;98.10;;;;;;5052611;28;20052;-91
2023/06/29 00:52:58;;;;;;;5.65;0.80;;;16.90;97.70;;;;;;5053655;28;20029;-91
2023/06/29 00:55:24;;;;;;;3.00;0.73;;;16.90;97.50;;;;;;5053457;28;20029;-90
2023/06/29 00:57:50;;;;;;;2.67;0.73;;;17.00;97.20;;;;;;5053018;28;20412;-90
2023/06/29 01:00:16;;;;;;;2.53;0.80;;;17.00;96.80;;;;;;5053269;28;20016;-91
2023/06/29 01:02:42;;;;;;;2.08;0.50;;;17.00;96.50;;;;;;5052981;28;20047;-90
2023/06/29 01:05:12;;;;;;;3.15;1.15;;;17.00;96.60;;;;;;5054115;28;20049;-91
2023/06/29 01:08:02;;;;;;;2.58;0.73;;;17.10;96.60;;;;;;5053554;28;20036;-92
2023/06/29 01:10:32;;;;;;;3.38;0.93;;;17.10;96.40;;;;;;5054307;28;20086;-90
2023/06/29 01:12:59;;;;;;;2.03;0.70;;;17.10;96.40;;;;;;5052772;28;20057;-91
2023/06/29 01:15:25;;;;;;;4.47;1.55;;;17.10;96.20;;;;;;5053003;28;20032;-90
2023/06/29 01:17:54;;;;;;;3.78;1.23;;;17.10;95.90;;;;;;5051604;28;20024;-91
2023/06/29 01:20:25;;;;;;;2.63;0.63;;;17.10;95.70;;;;;;5053884;28;20029;-91
2023/06/29 01:23:14;;;;;;;3.15;0.70;;;17.10;95.30;;;;;;5053829;28;20538;-91
2023/06/29 01:25:41;;;;;;;7.30;0.70;;;17.20;95.30;;;;;;5053753;28;20029;-91
2023/06/29 01:28:08;;;;;;;2.30;0.50;;;17.10;95.30;;;;;;5053589;28;20559;-91
2023/06/29 01:30:45;;;;;;;3.88;0.68;;;17.10;95.60;;;;;;5053859;28;20033;-91
2023/06/29 01:33:11;;;;;;;3.83;1.15;;;17.00;95.70;;;;;;5052543;28;20564;-91
2023/06/29 01:35:37;;;;;;;3.10;0.70;;;17.00;95.80;;;;;;5052782;28;20485;-91
2023/06/29 01:38:08;;;;;;;5.40;0.60;;;16.90;95.90;;;;;;5052468;28;20021;-91
2023/06/29 01:40:37;;;;;;;3.90;0.90;;;16.80;96.20;;;;;;5052433;28;20025;-89
2023/06/29 01:43:03;;;;;;;4.05;0.63;;;16.80;96.50;;;;;;5052312;28;20021;-91
2023/06/29 01:45:29;;;;;;;3.63;0.73;;;16.70;96.70;;;;;;5052309;28;20021;-91
2023/06/29 01:47:56;;;;;;;2.33;0.82;;;16.60;97.10;;;;;;5052232;28;20040;-91
2023/06/29 01:50:22;;;;;;;3.67;1.00;;;16.50;97.70;;;;;;5053853;28;20032;-90
2023/06/29 01:52:48;;;;;;;2.28;0.60;;;16.40;98.40;;;;;;5058434;28;20028;-90
2023/06/29 01:55:14;;;;;;;2.58;0.60;;;16.30;99.00;;;;;;5051874;28;20025;-90
2023/06/29 01:57:39;;;;;;;2.83;0.93;;;16.30;99.50;;;;;;5052048;28;20032;-91
2023/06/29 02:00:06;;;;;;;3.40;0.60;;;16.10;99.90;;;;;;5052957;28;20436;-92
2023/06/29 02:02:31;;;;;;;8.13;1.77;;;16.10;99.90;;;;;;5052445;28;20051;-91
2023/06/29 02:04:58;;;;;;;1.92;0.70;;;16.00;99.90;;;;;;5052902;28;20053;-91
2023/06/29 02:07:24;;;;;;;3.83;0.60;;;15.90;99.90;;;;;;5052020;28;20031;-91
2023/06/29 02:09:51;;;;;;;4.00;1.27;;;15.90;99.90;;;;;;5064760;28;20072;-91
2023/06/29 02:12:17;;;;;;;2.55;0.88;;;15.80;99.90;;;;;;5072084;28;20025;-91
2023/06/29 02:14:42;;;;;;;2.58;0.75;;;15.70;99.90;;;;;;5054453;28;20025;-92
2023/06/29 02:17:08;;;;;;;7.03;0.82;;;15.70;99.90;;;;;;5053533;28;20543;-92
2023/06/29 02:19:34;;;;;;;3.17;0.80;;;15.60;99.90;;;;;;5052730;28;20109;-91
2023/06/29 02:22:00;;;;;;;3.05;0.77;;;15.50;99.90;;;;;;5052384;28;20485;-91
2023/06/29 02:24:25;;;;;;;3.75;0.90;;;15.50;99.90;;;;;;5051649;28;20547;-91
2023/06/29 02:26:52;;;;;;;3.20;0.70;;;15.40;99.90;;;;;;5051228;28;20041;-90
2023/06/29 02:29:18;;;;;;;3.33;0.90;;;15.40;99.90;;;;;;5051420;28;20401;-90
2023/06/29 02:31:44;;;;;;;2.67;0.70;;;15.40;99.90;;;;;;5051979;28;20100;-91
2023/06/29 02:34:10;;;;;;;;;;;15.40;99.90;;;;;;5052614;28;20021;-90
2023/06/29 02:36:35;;;;;;;4.63;0.80;;;15.40;99.90;;;;;;5054232;28;19979;-91
2023/06/29 02:39:01;;;;;;;;;;;15.50;99.90;;;;;;5053619;28;20068;-90
2023/06/29 02:41:27;;;;;;;3.40;0.73;;;15.50;99.90;;;;;;5052779;28;19909;-90
2023/06/29 02:43:53;;;;;;;5.93;0.70;;;15.50;99.90;;;;;;5051400;28;20025;-90
2023/06/29 02:46:19;;;;;;;2.28;0.60;;;15.60;99.90;;;;;;5052731;28;20056;-92
2023/06/29 02:48:44;;;;;;;1.20;0.57;;;15.60;99.90;;;;;;5052832;28;20369;-91
2023/06/29 02:51:10;;;;;;;5.93;0.93;;;15.60;99.90;;;;;;5052947;28;20025;-92
2023/06/29 02:53:36;;;;;;;3.40;0.95;;;15.60;99.90;;;;;;5050896;28;20234;-91
2023/06/29 02:56:01;;;;;;;2.28;0.75;;;15.60;99.90;;;;;;5051468;28;20021;-92
2023/06/29 02:58:27;;;;;;;7.25;0.82;;;15.50;99.90;;;;;;5052220;28;20029;-92
2023/06/29 03:00:53;;;;;;;;;;;15.50;99.90;;;;;;5052079;28;20025;-91
2023/06/29 03:03:18;;;;;;;3.35;1.02;;;15.60;99.90;;;;;;5051418;28;19909;-92
2023/06/29 03:05:44;;;;;;;;;;;15.60;99.90;;;;;;5051765;28;20405;-92
2023/06/29 03:08:10;;;;;;;5.13;0.85;;;15.70;99.90;;;;;;5050534;28;19949;-92
2023/06/29 03:10:35;;;;;;;3.50;1.15;;;15.70;99.90;;;;;;5051789;28;20485;-92
2023/06/29 03:13:01;;;;;;;4.75;0.98;;;15.70;99.90;;;;;;5052912;28;20025;-91
2023/06/29 03:15:27;;;;;;;3.17;1.23;;;15.70;99.90;;;;;;5055451;28;20032;-92
2023/06/29 03:17:52;;;;;;;4.18;0.80;;;15.80;99.90;;;;;;5055121;28;20029;-91
2023/06/29 03:20:18;;;;;;;5.43;1.27;;;15.80;99.90;;;;;;5055120;28;20028;-91
2023/06/29 03:22:44;;;;;;;3.88;1.02;;;15.80;99.90;;;;;;5055179;28;20078;-91
2023/06/29 03:25:12;;;;;;;;;;;15.80;99.90;;;;;;5055242;28;20029;-91
2023/06/29 03:27:38;;;;;;;2.40;0.90;;;15.70;99.90;;;;;;5055962;28;20453;-92
2023/06/29 03:30:04;;;;;;;5.78;0.80;;;15.70;99.90;;;;;;5054601;28;20107;-91
2023/06/29 03:32:30;;;;;;;4.72;0.75;;;15.70;99.90;;;;;;5054018;28;20078;-91
2023/06/29 03:34:55;;;;;;;3.28;0.93;;;15.60;99.90;;;;;;5054814;28;20025;-91
2023/06/29 03:37:21;;;;;;;3.70;0.95;;;15.60;99.90;;;;;;5055726;28;20032;-91
2023/06/29 03:39:47;;;;;;;3.58;0.60;;;15.60;99.90;;;;;;5057259;28;20029;-90
2023/06/29 03:42:12;;;;;;;2.33;0.50;;;15.60;99.90;;;;;;5055800;28;20028;-92
2023/06/29 03:44:39;;;;;;;;;;;15.60;99.90;;;;;;5056138;28;20409;-92
2023/06/29 03:47:06;;;;;;;3.35;0.60;;;15.50;99.90;;;;;;5056581;28;19919;-92
2023/06/29 03:49:32;;;;;;;2.15;0.80;;;15.50;99.90;;;;;;5056522;28;20037;-91
2023/06/29 03:51:58;;;;;;;6.40;1.13;;;15.50;99.90;;;;;;5057582;28;20604;-91
2023/06/29 03:54:23;;;;;;;2.78;0.85;;;15.50;99.90;;;;;;5060961;28;20032;-91
2023/06/29 03:56:50;;;;;;;2.63;0.93;;;15.50;99.90;;;;;;5077993;28;20025;-90
2023/06/29 03:59:15;;;;;;;3.17;0.68;;;15.60;99.90;;;;;;5078405;28;20028;-90
2023/06/29 04:01:41;;;;;;;4.97;0.60;;;15.60;99.90;;;;;;5056338;28;20436;-91
2023/06/29 04:04:07;;;;;;;;;;;15.50;99.90;;;;;;5056889;28;20071;-91
2023/06/29 04:06:32;;;;;;;2.28;0.75;;;15.50;99.90;;;;;;5054839;28;19924;-91
2023/06/29 04:08:58;;;;;;;7.82;1.17;;;15.60;99.90;;;;;;5054095;28;20028;-91
2023/06/29 04:11:23;;;;;;;3.67;1.00;;;15.70;99.90;;;;;;5056046;28;20024;-91
2023/06/29 04:13:49;;;;;;;;;;;15.80;99.90;;;;;;5055405;28;20473;-90
2023/06/29 04:16:15;;;;;;;2.97;0.70;;;15.80;99.90;;;;;;5054349;28;19912;-91
2023/06/29 04:18:40;;;;;;;2.42;0.65;;;15.90;99.90;;;;;;5062372;28;20025;-91
2023/06/29 04:21:06;;;;;;;2.97;1.05;;;15.90;99.90;;;;;;5074423;28;20013;-90
2023/06/29 04:23:32;;;;;;;6.35;1.05;;;16.10;99.90;;;;;;5053911;28;20155;-91
2023/06/29 04:26:03;;;;;;;6.22;1.23;;;16.10;99.90;;;;;;5054187;28;20425;-91
2023/06/29 04:28:35;;;;;;;6.20;1.00;;;16.20;99.90;;;;;;5054024;28;20028;-92
2023/06/29 04:31:02;;;;;;;3.03;0.80;;;16.30;99.90;;;;;;5054167;28;20021;-90
2023/06/29 04:33:27;;;;;;;14.77;1.35;;;16.50;99.90;;;;;;5054194;28;20032;-91
2023/06/29 04:35:53;;;;;;;3.25;1.38;;;16.60;99.90;;;;;;5053594;28;20017;-91
2023/06/29 04:38:22;;;;;;;4.55;1.23;;;16.80;99.90;;;;;;5053639;28;20055;-91
2023/06/29 04:40:48;;;;;;;2.53;0.80;;;16.90;99.90;;;;;;5053799;28;20035;-91
2023/06/29 04:43:14;;;;;;;4.20;0.90;;;17.00;99.90;;;;;;5054551;28;20033;-92
2023/06/29 04:45:40;;;;;;;8.63;1.05;;;17.00;99.90;;;;;;5053076;28;20493;-91
2023/06/29 04:48:06;;;;;;;7.72;0.80;;;17.10;99.90;;;;;;5052948;28;20107;-90
2023/06/29 04:50:35;;;;;;;4.28;0.95;;;17.10;99.90;;;;;;5053548;28;20064;-90
2023/06/29 04:53:09;;;;;;;4.32;1.55;;;17.10;99.90;;;;;;5053222;28;20029;-90
2023/06/29 04:55:36;;;;;;;5.88;0.88;;;17.00;99.90;;;;;;5053086;28;20017;-92
2023/06/29 04:58:03;;;;;;;4.05;1.00;;;17.00;99.90;;;;;;5053358;28;20033;-91
2023/06/29 05:00:29;;;;;;;4.35;0.95;;;16.90;99.90;;;;;;5052818;28;20017;-90
2023/06/29 05:02:55;;;;;;;5.95;0.80;;;16.90;99.90;;;;;;5051212;28;20405;-91
2023/06/29 05:05:20;;;;;;;2.00;0.77;;;16.90;99.90;;;;;;5052824;28;20047;-91
2023/06/29 05:07:47;;;;;;;4.03;1.05;;;16.90;99.90;;;;;;5052700;28;20033;-92
2023/06/29 05:10:13;;;;;;;2.10;0.70;;;16.90;99.90;;;;;;5051643;28;20086;-90
2023/06/29 05:12:38;;;;;;;2.97;0.93;;;17.00;99.90;;;;;;5052206;28;20068;-92
2023/06/29 05:15:04;;;;;;;3.17;1.08;;;17.20;99.90;;;;;;5052829;28;20025;-90
2023/06/29 05:17:30;;;;;;;6.15;0.85;;;17.40;99.90;;;;;;5051352;28;20029;-90
2023/06/29 05:19:56;;;;;;;7.40;1.00;;;17.50;99.90;;;;;;5050666;28;20025;-89
2023/06/29 05:22:21;;;;;;;7.28;0.88;;;17.70;99.90;;;;;;5050922;28;20382;-90
2023/06/29 05:24:48;;;;;;;5.65;1.10;;;17.90;99.90;;;;;;5053685;28;20489;-89
2023/06/29 05:27:14;;;;;;;4.05;0.90;;;18.10;99.90;;;;;;5051354;28;20144;-88
2023/06/29 05:29:40;;;;;;;7.43;1.50;;;18.40;99.90;;;;;;5051157;28;20536;-89
2023/06/29 05:32:06;;;;;;;4.57;1.13;;;18.60;99.90;;;;;;5051449;28;20029;-89
2023/06/29 05:34:31;;;;;;;1.95;0.95;;;18.80;99.90;;;;;;5051983;28;20029;-89
2023/06/29 05:36:57;;;;;;;3.95;0.88;;;19.00;99.90;;;;;;5050260;28;20044;-89
2023/06/29 05:39:23;;;;;;;2.42;1.00;;;19.10;99.90;;;;;;5050413;28;20083;-87
2023/06/29 05:41:48;;;;;;;3.28;0.82;;;19.20;99.90;;;;;;5050557;28;20029;-88
2023/06/29 05:44:14;;;;;;;2.63;0.70;;;19.40;99.90;;;;;;5051925;28;20032;-88
2023/06/29 05:46:40;;;;;;;8.77;1.13;;;19.70;99.90;;;;;;5052054;28;20087;-89
2023/06/29 05:49:05;;;;;;;7.70;1.23;;;20.00;99.90;;;;;;5051190;28;20036;-88
2023/06/29 05:51:32;;;;;;;20.25;1.42;;;20.30;99.90;;;;;;5050975;28;20032;-88
2023/06/29 05:53:58;;;;;;;4.93;0.85;;;20.50;99.40;;;;;;5051443;28;20397;-89
2023/06/29 05:56:24;;;;;;;2.53;0.65;;;20.80;98.30;;;;;;5050491;28;20128;-89
2023/06/29 05:58:49;;;;;;;4.47;0.82;;;21.30;97.00;;;;;;5053007;28;20064;-88
2023/06/29 06:01:15;;;;;;;6.38;0.80;;;21.90;94.80;;;;;;5054977;28;20044;-88
2023/06/29 06:03:41;;;;;;;2.85;0.63;;;22.90;87.30;;;;;;5051633;28;20029;-90
2023/06/29 06:06:06;;;;;;;5.40;1.25;;;24.20;81.00;;;;;;5051815;28;20044;-90
2023/06/29 06:08:33;;;;;;;3.20;1.00;;;25.80;70.60;;;;;;5052117;28;20021;-90
2023/06/29 06:10:58;;;;;;;2.83;0.70;;;27.20;63.60;;;;;;5051825;28;20025;-91
2023/06/29 06:13:24;;;;;;;3.10;1.05;;;28.60;57.30;;;;;;5050942;28;20143;-90
2023/06/29 06:15:50;;;;;;;4.55;0.77;;;29.80;54.10;;;;;;5052386;28;20025;-88
2023/06/29 06:18:16;;;;;;;3.33;0.90;;;30.40;50.70;;;;;;5051181;28;20056;-89
2023/06/29 06:20:42;;;;;;;1.55;0.73;;;30.70;47.30;;;;;;5050978;28;20044;-89
2023/06/29 06:23:07;;;;;;;2.05;0.80;;;31.20;47.20;;;;;;5053186;28;20104;-89
2023/06/29 06:25:33;;;;;;;4.57;0.75;;;32.00;45.20;;;;;;5052845;28;20037;-89
2023/06/29 06:27:58;;;;;;;2.88;0.82;;;32.30;44.10;;;;;;5057937;28;20075;-89
2023/06/29 06:30:24;;;;;;;5.20;0.55;;;32.60;43.50;;;;;;5066467;28;20029;-89
2023/06/29 06:32:50;;;;;;;4.60;0.60;;;33.50;41.00;;;;;;5052061;28;20029;-90
2023/06/29 06:35:16;;;;;;;0.63;0.50;;;32.80;41.20;;;;;;5053652;28;20033;-90
2023/06/29 06:37:42;;;;;;;1.35;0.80;;;32.90;40.60;;;;;;5052446;28;20029;-90
2023/06/29 06:40:08;;;;;;;0.98;0.52;;;33.10;39.60;;;;;;5051239;28;20040;-89
2023/06/29 06:42:37;;;;;;;1.08;0.60;;;32.90;39.00;;;;;;5052992;28;20106;-89
2023/06/29 06:45:04;;;;;;;1.45;0.50;;;33.20;39.50;;;;;;5051224;28;20033;-90
2023/06/29 06:47:31;;;;;;;2.08;0.40;;;33.30;38.80;;;;;;5052581;28;20124;-89
2023/06/29 06:49:57;;;;;;;3.88;0.50;;;33.80;36.80;;;;;;5054536;28;20501;-90
2023/06/29 06:52:23;;;;;;;0.90;0.40;;;33.30;36.50;;;;;;5055116;28;20025;-88
2023/06/29 06:54:48;;;;;;;2.55;0.40;;;33.30;37.30;;;;;;5055077;28;20033;-88
2023/06/29 06:57:14;;;;;;;2.28;0.60;;;33.40;37.10;;;;;;5055942;28;20025;-89
2023/06/29 06:59:40;;;;;;;0.65;0.50;;;33.30;36.70;;;;;;5055148;28;20196;-88
2023/06/29 07:02:06;;;;;;;1.95;0.70;;;33.50;37.90;;;;;;5055377;28;20122;-88
2023/06/29 07:04:32;;;;;;;2.33;0.90;;;33.30;37.80;;;;;;5055571;28;20063;-89
2023/06/29 07:06:57;;;;;;;7.07;1.35;;;34.40;37.40;;;;;;5055019;28;20029;-90
2023/06/29 07:09:23;;;;;;;7.95;1.42;;;34.10;38.30;;;;;;5055339;28;20403;-89
2023/06/29 07:11:49;;;;;;;7.25;1.40;;;34.10;38.70;;;;;;5054837;28;20029;-88
2023/06/29 07:14:16;;;;;;;5.53;1.00;;;33.50;39.90;;;;;;5058533;28;20036;-89
2023/06/29 07:16:42;;;;;;;3.75;1.25;;;32.90;40.40;;;;;;5074341;28;20057;-89
2023/06/29 07:19:13;;;;;;;5.32;0.90;;;32.70;40.00;;;;;;5069218;28;20055;-89
2023/06/29 07:21:39;;;;;;;5.68;1.98;;;32.70;40.50;;;;;;5056005;28;20033;-88
2023/06/29 07:24:06;;;;;;;7.30;1.23;;;32.50;40.90;;;;;;5057973;28;20049;-90
2023/06/29 07:26:31;;;;;;;7.32;1.10;;;32.40;39.20;;;;;;5056879;28;20037;-88
2023/06/29 07:28:57;;;;;;;3.88;1.10;;;32.30;39.80;;;;;;5055300;28;20409;-89
2023/06/29 07:31:27;;;;;;;7.40;0.73;;;32.40;41.60;;;;;;5055376;28;20033;-89
2023/06/29 07:33:54;;;;;;;4.43;1.23;;;32.60;40.30;;;;;;5053851;28;20033;-89
2023/06/29 07:36:24;;;;;;;2.83;0.90;;;32.70;40.20;;;;;;5053645;28;20569;-88
2023/06/29 07:38:51;;;;;;;3.28;1.38;;;32.80;40.30;;;;;;5053202;28;20029;-87
2023/06/29 07:41:19;;;;;;;4.25;1.15;;;32.60;41.00;;;;;;5054019;28;20054;-88
2023/06/29 07:43:52;;;;;;;3.80;1.08;;;32.60;40.20;;;;;;5053333;28;20037;-88
2023/06/29 07:46:17;;;;;;;5.97;1.52;;;32.20;41.00;;;;;;5053144;28;20041;-89
2023/06/29 07:48:43;;;;;;;2.75;1.05;;;32.20;41.80;;;;;;5053738;28;20031;-87
2023/06/29 07:51:09;;;;;;;5.50;1.20;;;31.90;40.30;;;;;;5053502;28;20485;-88
2023/06/29 07:53:35;;;;;;;4.10;1.13;;;31.50;42.30;;;;;;5054323;28;20449;-89
2023/06/29 07:56:01;;;;;;;7.75;1.25;;;31.90;43.10;;;;;;5053094;28;20131;-88
2023/06/29 07:58:27;;;;;;;1.70;0.73;;;32.10;42.50;;;;;;5053527;28;20028;-89
2023/06/29 08:00:54;;;;;;;6.35;0.90;;;31.70;41.70;;;;;;5053935;28;20070;-88
2023/06/29 08:03:19;;;;;;;1.98;0.60;;;31.20;42.10;;;;;;5058568;28;20021;-88
2023/06/29 08:05:45;;;;;;;2.35;0.82;;;31.10;41.70;;;;;;5053598;28;20399;-88
2023/06/29 08:08:12;;;;;;;4.47;1.02;;;30.90;42.30;;;;;;5054646;28;20071;-89
2023/06/29 08:10:38;;;;;;;3.60;0.70;;;30.20;42.80;;;;;;5054375;28;20132;-88
2023/06/29 08:13:03;;;;;;;4.40;0.77;;;29.40;43.80;;;;;;5055405;28;20449;-89
2023/06/29 08:15:29;;;;;;;4.05;1.15;;;29.30;45.10;;;;;;5052920;28;20048;-88
2023/06/29 08:17:55;;;;;;;2.45;0.80;;;29.60;44.60;;;;;;5052707;28;20055;-88
2023/06/29 08:20:22;;;;;;;3.63;0.57;;;29.60;44.40;;;;;;5054272;28;20080;-89
2023/06/29 08:22:48;;;;;;;1.33;0.63;;;28.90;44.90;;;;;;5053739;28;20036;-90
2023/06/29 08:25:14;;;;;;;8.68;0.70;;;28.20;45.60;;;;;;5054865;28;20044;-89
2023/06/29 08:27:41;;;;;;;3.78;0.80;;;27.60;48.50;;;;;;5053887;28;20033;-89
2023/06/29 08:30:10;;;;;;;1.65;0.60;;;27.40;48.80;;;;;;5053641;28;20025;-88
2023/06/29 08:32:36;;;;;;;2.40;0.73;;;27.30;48.90;;;;;;5054662;28;20496;-87
2023/06/29 08:35:01;;;;;;;2.00;0.90;;;27.20;48.70;;;;;;5052585;28;20051;-89
2023/06/29 08:37:28;;;;;;;3.83;0.80;;;27.60;49.90;;;;;;5058979;28;20025;-87
2023/06/29 08:39:55;;;;;;;1.48;0.60;;;28.20;50.80;;;;;;5060346;28;20067;-88
2023/06/29 08:42:21;;;;;;;2.05;0.60;;;28.70;47.10;;;;;;5054072;28;20032;-89
2023/06/29 08:44:47;;;;;;;2.65;0.68;;;28.70;47.00;;;;;;5054439;28;20044;-89
2023/06/29 08:47:14;;;;;;;1.77;0.60;;;28.40;47.00;;;;;;5053716;28;20040;-88
2023/06/29 08:49:44;;;;;;;1.25;0.47;;;28.50;47.50;;;;;;5054197;28;20021;-87
2023/06/29 08:52:15;;;;;;;3.25;0.88;;;28.30;47.20;;;;;;5053298;28;20029;-89
2023/06/29 08:54:41;;;;;;;1.13;0.47;;;28.20;46.80;;;;;;5053658;28;20028;-89
2023/06/29 08:57:07;;;;;;;2.10;0.75;;;28.00;47.20;;;;;;5053897;28;20066;-88
2023/06/29 08:59:34;;;;;;;2.17;0.70;;;27.30;48.20;;;;;;5053711;28;20404;-89
2023/06/29 09:02:01;;;;;;;1.63;0.50;;;27.00;48.30;;;;;;5053416;28;20025;-89
2023/06/29 09:04:26;;;;;;;6.68;0.50;;;26.80;48.50;;;;;;5053402;28;20029;-88
2023/06/29 09:06:58;;;;;;;2.53;0.55;;;26.50;49.70;;;;;;5053650;28;20048;-89
2023/06/29 09:09:24;;;;;;;4.68;0.65;;;26.70;48.50;;;;;;5053749;28;20477;-89
2023/06/29 09:11:51;;;;;;;1.58;0.63;;;26.50;49.20;;;;;;5053132;28;20024;-89
2023/06/29 09:14:16;;;;;;;2.28;0.60;;;26.80;49.50;;;;;;5054651;28;20477;-89
2023/06/29 09:16:54;;;;;;;2.05;0.40;;;27.10;50.30;;;;;;5054183;28;20086;-90
2023/06/29 09:19:21;;;;;;;1.45;0.57;;;27.70;49.40;;;;;;5052966;28;20078;-90
2023/06/29 09:21:49;;;;;;;1.17;0.65;;;28.20;48.10;;;;;;5055797;28;20077;-90
2023/06/29 09:24:16;;;;;;;2.53;0.50;;;28.20;46.70;;;;;;5054974;28;20119;-89
2023/06/29 09:26:42;;;;;;;3.17;0.70;;;28.10;46.80;;;;;;5053938;28;20040;-90
2023/06/29 09:29:08;;;;;;;3.08;0.57;;;27.50;46.50;;;;;;5054236;28;20025;-89
2023/06/29 09:31:36;;;;;;;2.65;0.45;;;27.10;48.70;;;;;;5054665;28;20405;-90
2023/06/29 09:34:28;;;;;;;1.15;0.50;;;27.00;49.30;;;;;;5053774;28;20497;-89
2023/06/29 09:36:55;;;;;;;3.92;0.80;;;26.50;49.50;;;;;;5052838;28;20073;-90
2023/06/29 09:39:21;;;;;;;2.70;0.63;;;26.50;49.50;;;;;;5054571;28;20029;-90
2023/06/29 09:41:47;;;;;;;2.90;0.90;;;26.40;50.60;;;;;;5054353;28;20029;-90
2023/06/29 09:44:16;;;;;;;4.00;1.00;;;26.40;52.20;;;;;;5053835;28;20057;-88
2023/06/29 09:46:42;;;;;;;3.88;1.27;;;26.40;51.30;;;;;;5051148;28;20134;-90
2023/06/29 09:49:08;;;;;;;3.47;0.93;;;26.80;52.20;;;;;;5051640;28;20027;-89
2023/06/29 09:51:34;;;;;;;4.80;1.02;;;27.00;51.40;;;;;;5051083;28;20047;-89
2023/06/29 09:54:03;;;;;;;1.77;0.73;;;27.00;51.80;;;;;;5051697;28;20560;-89
2023/06/29 09:56:33;;;;;;;4.25;0.95;;;26.90;51.10;;;;;;5036249;28;20037;-90
2023/06/29 09:59:01;;;;;;;6.13;0.65;;;26.70;52.00;;;;;;5053149;28;20025;-91
2023/06/29 10:01:29;;;;;;;8.02;1.00;;;26.50;52.20;;;;;;5054034;28;20474;-91
2023/06/29 10:03:56;;;;;;;3.83;0.70;;;26.30;53.90;;;;;;5052952;28;20078;-90
2023/06/29 10:06:40;;;;;;;3.95;0.73;;;26.30;54.10;;;;;;5058148;28;20045;-90
2023/06/29 10:09:08;;;;;;;2.03;0.70;;;26.20;53.10;;;;;;5054558;28;20025;-90
2023/06/29 10:11:36;;;;;;;5.18;0.95;;;26.10;54.30;;;;;;5051122;28;20033;-90
2023/06/29 10:14:04;;;;;;;2.55;0.50;;;26.10;52.40;;;;;;5051981;28;20488;-89
2023/06/29 10:16:33;;;;;;;2.30;0.70;;;26.10;52.70;;;;;;5051119;28;20047;-88
2023/06/29 10:19:09;;;;;;;1.77;0.40;;;26.20;51.10;;;;;;5052784;28;20033;-88
2023/06/29 10:21:35;;;;;;;1.48;0.50;;;26.20;51.60;;;;;;5055103;28;20036;-90
2023/06/29 10:24:02;;;;;;;4.63;0.77;;;26.30;51.60;;;;;;5059065;28;20025;-90
2023/06/29 10:26:28;;;;;;;0.95;0.50;;;26.50;50.40;;;;;;5059698;28;20041;-88
2023/06/29 10:28:54;;;;;;;1.75;0.40;;;26.80;51.10;;;;;;5058763;28;20040;-90
2023/06/29 10:31:30;;;;;;;4.35;0.50;;;27.00;50.60;;;;;;5058223;28;20029;-90
2023/06/29 10:33:58;;;;;;;3.47;0.47;;;27.00;49.60;;;;;;5058351;28;20031;-90
2023/06/29 10:36:23;;;;;;;1.40;0.65;;;26.70;48.30;;;;;;5074491;28;20017;-90
2023/06/29 10:38:50;;;;;;;1.80;0.57;;;26.70;49.90;;;;;;5079671;28;20044;-90
2023/06/29 10:41:27;;;;;;;6.05;0.70;;;26.80;51.20;;;;;;5067475;28;20043;-87
2023/06/29 10:44:00;;;;;;;1.05;0.52;;;27.00;51.00;;;;;;5060026;28;20104;-89
2023/06/29 10:46:45;;;;;;;1.75;0.60;;;27.00;51.20;;;;;;5068207;28;20025;-89
2023/06/29 10:49:25;;;;;;;5.27;0.50;;;27.00;48.40;;;;;;5067760;28;20036;-91
2023/06/29 10:51:55;;;;;;;2.72;0.50;;;27.00;49.90;;;;;;5039284;28;20041;-89
2023/06/29 10:54:22;;;;;;;2.30;0.50;;;27.20;51.40;;;;;;5057683;28;20074;-91
2023/06/29 10:56:56;;;;;;;2.13;0.63;;;27.60;51.40;;;;;;5056135;28;20036;-90
2023/06/29 10:59:22;;;;;;;1.17;0.40;;;27.90;49.50;;;;;;5055498;28;20021;-89
2023/06/29 11:01:49;;;;;;;1.85;0.60;;;27.90;47.80;;;;;;5054521;28;20093;-88
2023/06/29 11:04:15;;;;;;;1.05;0.50;;;28.20;47.70;;;;;;5054095;28;20024;-88
2023/06/29 11:06:40;;;;;;;6.95;0.60;;;28.30;49.10;;;;;;5054375;28;20055;-89
2023/06/29 11:09:13;;;;;;;2.13;0.50;;;28.60;49.40;;;;;;5054849;28;20021;-88
2023/06/29 11:11:41;;;;;;;2.03;0.60;;;28.80;48.10;;;;;;5055545;28;20032;-89
2023/06/29 11:14:10;;;;;;;1.40;0.50;;;29.00;49.00;;;;;;5053839;28;20032;-89
2023/06/29 11:16:37;;;;;;;5.85;0.55;;;29.10;48.20;;;;;;5054019;28;20029;-87
2023/06/29 11:19:03;;;;;;;1.60;0.50;;;29.30;48.40;;;;;;5055060;28;20036;-87
2023/06/29 11:21:29;;;;;;;2.17;0.75;;;29.50;47.80;;;;;;5053717;28;20033;-87
2023/06/29 11:23:55;;;;;;;1.38;0.52;;;29.60;46.50;;;;;;5054366;28;20021;-88
2023/06/29 11:26:21;;;;;;;2.75;0.50;;;29.60;45.80;;;;;;5053504;28;20041;-88
2023/06/29 11:28:49;;;;;;;3.95;0.65;;;29.30;46.50;;;;;;5054666;28;20025;-90
2023/06/29 11:31:18;;;;;;;1.45;0.70;;;28.90;46.30;;;;;;5055573;28;20032;-90
2023/06/29 11:33:51;;;;;;;2.60;0.70;;;28.50;44.60;;;;;;5055583;28;20508;-90
2023/06/29 11:36:30;;;;;;;1.92;0.65;;;27.60;46.10;;;;;;5056152;28;20029;-89
2023/06/29 11:39:07;;;;;;;4.88;0.60;;;27.30;49.20;;;;;;5055810;28;20440;-91
2023/06/29 11:41:34;;;;;;;2.20;0.80;;;27.00;50.00;;;;;;5055036;28;20025;-89
2023/06/29 11:44:00;;;;;;;2.20;0.60;;;26.80;50.10;;;;;;5053281;28;20091;-90
2023/06/29 11:46:27;;;;;;;1.63;0.50;;;26.60;50.20;;;;;;5054694;28;20489;-89
2023/06/29 11:48:56;;;;;;;1.65;0.50;;;26.50;51.30;;;;;;5053487;28;20025;-90
2023/06/29 11:51:26;;;;;;;1.50;0.50;;;26.50;52.40;;;;;;5053743;28;20040;-91
2023/06/29 11:53:53;;;;;;;2.60;0.70;;;26.70;51.20;;;;;;5053535;28;20033;-91
2023/06/29 11:56:36;;;;;;;3.92;0.55;;;26.70;50.80;;;;;;5054230;28;20029;-89
2023/06/29 11:59:06;;;;;;;0.93;0.43;;;26.40;51.50;;;;;;5053509;28;20035;-90
2023/06/29 12:01:32;;;;;;;7.15;0.65;;;26.30;51.20;;;;;;5053049;28;20060;-89
2023/06/29 12:03:58;;;;;;;3.58;0.70;;;26.10;52.30;;;;;;5054158;28;20021;-91
2023/06/29 12:06:23;;;;;;;2.13;0.75;;;26.00;52.20;;;;;;5054010;28;20509;-90
2023/06/29 12:08:52;;;;;;;2.05;0.65;;;25.90;51.30;;;;;;5055432;28;20043;-89
2023/06/29 12:11:19;;;;;;;2.78;0.60;;;25.90;54.10;;;;;;5055906;28;20021;-90
2023/06/29 12:13:48;;;;;;;3.10;0.60;;;26.10;52.60;;;;;;5053501;28;20036;-87
2023/06/29 12:16:17;;;;;;;2.92;0.60;;;26.40;52.90;;;;;;5052936;28;20032;-89
2023/06/29 12:18:43;;;;;;;1.88;0.50;;;26.70;51.30;;;;;;5052394;28;20115;-89
2023/06/29 12:21:09;;;;;;;4.97;0.50;;;27.10;51.00;;;;;;5053393;28;20068;-89
2023/06/29 12:23:34;;;;;;;2.22;0.40;;;27.20;48.50;;;;;;5052835;28;20112;-87
2023/06/29 12:26:00;;;;;;;1.35;0.60;;;27.00;50.20;;;;;;5052252;28;20033;-88
2023/06/29 12:28:26;;;;;;;1.92;0.60;;;26.70;48.90;;;;;;5053444;28;20520;-89
2023/06/29 12:30:52;;;;;;;6.20;0.80;;;26.50;50.40;;;;;;5053298;28;20028;-89
2023/06/29 12:33:17;;;;;;;2.63;0.73;;;26.60;51.60;;;;;;5054079;28;20367;-88
2023/06/29 12:35:43;;;;;;;1.52;0.50;;;26.80;52.80;;;;;;5052509;28;20382;-88
2023/06/29 12:38:09;;;;;;;1.67;0.40;;;27.00;49.80;;;;;;5052880;28;20112;-88
2023/06/29 12:40:35;;;;;;;2.72;0.60;;;27.00;50.50;;;;;;5052383;28;20025;-88
2023/06/29 12:43:01;;;;;;;2.20;0.73;;;27.10;51.40;;;;;;5051779;28;20043;-88
2023/06/29 12:45:27;;;;;;;1.00;0.47;;;27.20;51.50;;;;;;5050001;28;20075;-89
2023/06/29 12:47:53;;;;;;;1.27;0.70;;;27.30;50.60;;;;;;5051245;28;20037;-87